Time;durP1;ratioP1;P1;durP2;ratioP2;P2;SDS_P1;SDS_P2;PMS_P1;PMS_P2;Temp;Humidity;BMP_temperature;BMP_pressure;BME280_temperature;BME280_humidity;BME280_pressure;Samples;Min_cycle;Max_cycle;Signal;HPM_P1;HPM_P2
2021/12/23 00:01:58;;;;;;;12.23;6.45;;;-0.70;98.90;;;;;;5072633;28;20074;-76
2021/12/23 00:04:24;;;;;;;13.00;5.57;;;-0.70;99.00;;;;;;5090211;28;20024;-76
2021/12/23 00:06:50;;;;;;;14.57;7.03;;;-0.50;98.50;;;;;;5075872;28;20060;-77
2021/12/23 00:09:15;;;;;;;10.55;6.40;;;-0.30;98.30;;;;;;5072935;28;20485;-76
2021/12/23 00:11:41;;;;;;;13.43;6.73;;;-0.50;98.30;;;;;;5082906;28;20023;-76
2021/12/23 00:14:09;;;;;;;12.27;6.13;;;-0.50;98.40;;;;;;5092918;28;20024;-76
2021/12/23 00:24:30;;;;;;;14.30;7.20;;;-0.50;98.40;;;;;;5075486;28;20099;-75
2021/12/23 00:26:56;;;;;;;10.50;5.78;;;-0.40;98.40;;;;;;5092368;28;20024;-77
2021/12/23 00:29:22;;;;;;;13.53;6.23;;;-0.60;98.40;;;;;;5094813;28;20115;-76
2021/12/23 00:31:48;;;;;;;16.97;6.67;;;-0.80;98.70;;;;;;5076116;28;20379;-76
2021/12/23 00:34:13;;;;;;;13.87;7.17;;;-0.90;99.10;;;;;;5073089;28;20120;-76
2021/12/23 00:36:42;;;;;;;13.67;6.47;;;-0.80;99.10;;;;;;5090875;28;20031;-76
2021/12/23 00:39:09;;;;;;;14.77;6.43;;;-0.70;98.90;;;;;;5089690;28;20028;-76
2021/12/23 00:41:35;;;;;;;12.15;6.38;;;-0.50;98.40;;;;;;5093277;28;20450;-77
2021/12/23 00:44:01;;;;;;;16.35;8.13;;;-0.50;98.30;;;;;;5081993;28;20119;-76
2021/12/23 00:46:26;;;;;;;14.00;7.10;;;-0.80;98.70;;;;;;5073703;28;20017;-76
2021/12/23 00:48:52;;;;;;;11.18;6.82;;;-0.70;98.90;;;;;;5078761;28;20024;-76
2021/12/23 00:51:19;;;;;;;9.57;5.53;;;-0.70;98.70;;;;;;5073448;28;20103;-76
2021/12/23 00:53:48;;;;;;;14.23;7.75;;;-0.90;98.70;;;;;;5077639;28;20043;-76
2021/12/23 00:56:14;;;;;;;11.53;5.40;;;-0.80;98.70;;;;;;5076024;28;20027;-76
2021/12/23 00:58:40;;;;;;;12.40;5.70;;;-0.80;98.80;;;;;;5083891;28;20487;-76
2021/12/23 01:01:07;;;;;;;10.47;6.13;;;-0.80;98.80;;;;;;5074964;28;20074;-76
2021/12/23 01:03:32;;;;;;;13.52;5.88;;;-0.90;98.80;;;;;;5085805;28;20028;-76
2021/12/23 01:05:58;;;;;;;11.50;5.73;;;-0.90;98.90;;;;;;5072855;28;20491;-76
2021/12/23 01:08:25;;;;;;;11.02;6.32;;;-0.90;99.00;;;;;;5090778;28;20480;-76
2021/12/23 01:10:57;;;;;;;13.13;6.43;;;-0.70;98.60;;;;;;5079231;28;20024;-76
2021/12/23 01:13:28;;;;;;;11.65;5.90;;;-0.60;98.50;;;;;;5089062;28;20086;-76
2021/12/23 01:16:01;;;;;;;10.97;6.27;;;-0.60;98.50;;;;;;5093220;28;20028;-76
2021/12/23 01:18:31;;;;;;;10.33;5.37;;;-0.70;98.30;;;;;;5072894;28;20398;-76
2021/12/23 01:21:15;;;;;;;12.27;6.50;;;-0.80;98.50;;;;;;5073108;28;20028;-76
2021/12/23 01:23:43;;;;;;;9.03;5.97;;;-0.70;98.50;;;;;;5080011;28;20479;-76
2021/12/23 01:26:10;;;;;;;8.63;5.10;;;-0.60;98.30;;;;;;5073102;28;20020;-76
2021/12/23 01:28:36;;;;;;;10.23;5.93;;;-0.70;98.50;;;;;;5092346;28;20397;-76
2021/12/23 01:31:01;;;;;;;12.50;6.90;;;-0.80;98.60;;;;;;5092515;28;20024;-76
2021/12/23 01:33:27;;;;;;;10.77;5.63;;;-0.70;98.60;;;;;;5073588;28;20123;-77
2021/12/23 01:35:53;;;;;;;10.80;5.93;;;-0.80;98.50;;;;;;5075445;28;20035;-76
2021/12/23 01:38:19;;;;;;;14.40;6.20;;;-0.80;98.70;;;;;;5088859;28;20033;-76
2021/12/23 01:40:46;;;;;;;12.50;6.37;;;-0.80;98.60;;;;;;5075962;28;20086;-76
2021/12/23 01:43:16;;;;;;;14.33;7.43;;;-0.80;98.40;;;;;;5071127;28;20410;-75
2021/12/23 01:45:45;;;;;;;10.60;6.07;;;-0.70;98.20;;;;;;5072508;28;20027;-76
2021/12/23 01:48:11;;;;;;;10.23;5.13;;;-0.50;97.90;;;;;;5072399;28;20195;-76
2021/12/23 01:50:39;;;;;;;9.90;5.13;;;-0.50;97.80;;;;;;5074095;28;20452;-76
2021/12/23 01:53:05;;;;;;;9.53;5.47;;;-0.50;98.10;;;;;;5071891;28;20044;-76
2021/12/23 01:55:30;;;;;;;12.67;6.43;;;-0.70;98.00;;;;;;5084106;28;20027;-76
2021/12/23 01:57:57;;;;;;;14.13;6.13;;;-0.50;97.90;;;;;;5070219;28;20047;-76
2021/12/23 02:00:26;;;;;;;11.93;5.47;;;-0.50;97.90;;;;;;5086641;28;20024;-76
2021/12/23 02:02:54;;;;;;;10.83;5.93;;;-0.60;98.20;;;;;;5090587;28;20028;-76
2021/12/23 02:05:20;;;;;;;9.87;5.13;;;-0.80;98.30;;;;;;5073139;28;20028;-76
2021/12/23 02:07:46;;;;;;;10.35;6.00;;;-0.80;98.30;;;;;;5069431;28;20028;-76
2021/12/23 02:10:13;;;;;;;8.97;5.57;;;-0.80;98.40;;;;;;5085426;28;20036;-76
2021/12/23 02:12:43;;;;;;;10.90;5.57;;;-0.90;98.30;;;;;;5082394;28;20032;-76
2021/12/23 02:15:10;;;;;;;11.40;5.20;;;-0.90;98.70;;;;;;5076046;28;20020;-76
2021/12/23 02:17:37;;;;;;;10.67;5.40;;;-1.10;98.60;;;;;;5082055;28;20410;-76
2021/12/23 02:20:05;;;;;;;8.97;5.53;;;-1.20;98.90;;;;;;5082400;28;20111;-76
2021/12/23 02:22:31;;;;;;;12.40;6.60;;;-1.20;99.10;;;;;;5078587;28;20072;-76
2021/12/23 02:24:56;;;;;;;10.20;6.10;;;-1.20;99.10;;;;;;5091989;28;20103;-76
2021/12/23 02:27:22;;;;;;;11.05;5.95;;;-1.20;99.20;;;;;;5079052;28;20134;-76
2021/12/23 02:29:48;;;;;;;8.82;5.20;;;-1.20;99.20;;;;;;5088660;28;20028;-76
2021/12/23 02:32:14;;;;;;;14.10;6.60;;;-1.40;99.40;;;;;;5069736;28;20085;-76
2021/12/23 02:34:40;;;;;;;9.77;5.65;;;-1.50;99.70;;;;;;5077915;28;20501;-76
2021/12/23 02:37:05;;;;;;;9.55;4.85;;;-1.40;99.90;;;;;;5091512;28;20028;-76
2021/12/23 02:39:31;;;;;;;11.18;6.25;;;-1.30;99.50;;;;;;5071527;28;20131;-76
2021/12/23 02:41:57;;;;;;;12.40;6.10;;;-1.20;99.00;;;;;;5071395;28;20020;-76
2021/12/23 02:44:23;;;;;;;11.07;5.60;;;-1.00;98.80;;;;;;5086975;28;20034;-76
2021/12/23 02:46:49;;;;;;;14.87;6.03;;;-1.00;98.50;;;;;;5075896;28;20421;-76
2021/12/23 02:49:15;;;;;;;10.73;5.40;;;-0.90;98.20;;;;;;5072882;28;20722;-76
2021/12/23 02:51:41;;;;;;;10.18;5.85;;;-0.80;97.90;;;;;;5089696;28;21000;-76
2021/12/23 02:54:07;;;;;;;9.53;5.33;;;-1.00;98.20;;;;;;5087533;28;20037;-76
2021/12/23 02:56:35;;;;;;;11.87;6.07;;;-1.00;98.40;;;;;;5089360;28;20044;-76
2021/12/23 02:59:01;;;;;;;10.83;5.60;;;-1.10;98.50;;;;;;5070948;28;20606;-76
2021/12/23 03:01:27;;;;;;;12.47;5.80;;;-1.10;98.60;;;;;;5071323;28;20028;-76
2021/12/23 03:03:53;;;;;;;10.47;5.60;;;-1.20;98.50;;;;;;5088130;28;20085;-76
2021/12/23 03:06:21;;;;;;;8.77;5.27;;;-1.00;98.20;;;;;;5070816;28;20066;-76
2021/12/23 03:08:51;;;;;;;10.57;4.83;;;-0.90;97.90;;;;;;5079067;28;20049;-76
2021/12/23 03:11:19;;;;;;;13.63;5.33;;;-0.90;98.00;;;;;;5074404;28;20470;-76
2021/12/23 03:13:46;;;;;;;16.00;7.70;;;-0.90;98.00;;;;;;5087365;28;20032;-76
2021/12/23 03:16:13;;;;;;;11.83;6.43;;;-1.00;98.00;;;;;;5075900;28;20028;-76
2021/12/23 03:18:39;;;;;;;14.93;5.90;;;-1.10;98.20;;;;;;5070696;28;20024;-76
2021/12/23 03:21:06;;;;;;;14.63;6.93;;;-1.20;98.60;;;;;;5082906;28;20028;-76
2021/12/23 03:23:32;;;;;;;11.53;6.20;;;-1.20;98.70;;;;;;5091194;28;20031;-76
2021/12/23 03:25:59;;;;;;;9.93;5.93;;;-1.10;98.60;;;;;;5080365;28;20027;-76
2021/12/23 03:28:25;;;;;;;8.50;4.90;;;-1.10;98.20;;;;;;5081380;28;20023;-76
2021/12/23 03:30:51;;;;;;;10.67;5.37;;;-0.90;98.20;;;;;;5081019;28;20040;-76
2021/12/23 03:33:17;;;;;;;10.27;4.75;;;-0.60;97.10;;;;;;5068881;28;20090;-76
2021/12/23 03:35:43;;;;;;;13.10;5.87;;;-0.60;97.20;;;;;;5067807;28;20060;-76
2021/12/23 03:38:10;;;;;;;10.40;5.17;;;-0.40;96.70;;;;;;5068495;28;20429;-76
2021/12/23 03:40:36;;;;;;;10.00;5.63;;;-0.50;96.80;;;;;;5074023;28;20078;-77
2021/12/23 03:43:02;;;;;;;9.17;5.10;;;-0.60;97.00;;;;;;5088679;28;20506;-76
2021/12/23 03:45:28;;;;;;;8.23;4.73;;;-0.70;97.30;;;;;;5083286;28;20019;-76
2021/12/23 03:47:53;;;;;;;10.40;5.15;;;-0.70;97.30;;;;;;5090509;28;20024;-76
2021/12/23 03:50:21;;;;;;;9.97;5.50;;;-0.70;97.40;;;;;;5084623;28;20072;-76
2021/12/23 03:52:47;;;;;;;12.15;5.70;;;-0.70;97.30;;;;;;5070871;28;20056;-76
2021/12/23 03:55:14;;;;;;;15.23;7.18;;;-0.80;97.50;;;;;;5074787;28;20055;-76
2021/12/23 03:57:40;;;;;;;13.20;6.68;;;-0.80;97.70;;;;;;5089864;28;20046;-76
2021/12/23 04:00:09;;;;;;;16.43;7.00;;;-0.80;97.20;;;;;;5082912;28;20027;-73
2021/12/23 04:02:35;;;;;;;7.55;4.68;;;-0.80;97.40;;;;;;5082479;28;20055;-75
2021/12/23 04:05:01;;;;;;;10.15;5.03;;;-0.80;97.30;;;;;;5067816;28;20454;-75
2021/12/23 04:07:27;;;;;;;10.50;4.97;;;-0.80;97.50;;;;;;5081657;28;20448;-75
2021/12/23 04:09:53;;;;;;;12.23;5.13;;;-0.80;97.30;;;;;;5079380;28;20024;-75
2021/12/23 04:12:18;;;;;;;10.98;5.70;;;-0.60;97.20;;;;;;5062982;28;20025;-75
2021/12/23 04:14:44;;;;;;;13.25;5.40;;;-0.80;97.60;;;;;;5073942;28;20028;-75
2021/12/23 04:17:10;;;;;;;8.45;4.50;;;-0.80;97.40;;;;;;5062581;28;20112;-75
2021/12/23 04:19:35;;;;;;;11.03;4.33;;;-0.80;97.40;;;;;;5079905;28;20036;-75
2021/12/23 04:22:01;;;;;;;10.23;4.75;;;-0.80;97.40;;;;;;5083477;28;20028;-75
2021/12/23 04:24:27;;;;;;;14.27;5.63;;;-0.70;97.20;;;;;;5067379;28;20197;-75
2021/12/23 04:26:53;;;;;;;8.70;4.50;;;-0.60;96.90;;;;;;5067019;28;20081;-75
2021/12/23 04:29:19;;;;;;;12.33;5.20;;;-0.60;97.20;;;;;;5065760;28;20099;-75
2021/12/23 04:31:45;;;;;;;9.37;4.93;;;-0.70;97.20;;;;;;5068225;28;20032;-75
2021/12/23 04:34:12;;;;;;;11.93;5.78;;;-0.90;97.40;;;;;;5082846;28;20442;-75
2021/12/23 04:36:37;;;;;;;14.90;5.68;;;-0.90;97.40;;;;;;5088038;28;20089;-75
2021/12/23 04:39:04;;;;;;;10.40;5.55;;;-0.90;97.80;;;;;;5074015;28;20384;-75
2021/12/23 04:41:33;;;;;;;10.00;5.13;;;-1.00;97.90;;;;;;5087459;28;20028;-75
2021/12/23 04:43:59;;;;;;;11.52;5.00;;;-1.10;97.90;;;;;;5074672;28;20055;-75
2021/12/23 04:46:25;;;;;;;9.93;5.83;;;-1.10;97.90;;;;;;5067789;28;20591;-75
2021/12/23 04:48:52;;;;;;;10.30;5.13;;;-1.00;97.80;;;;;;5072802;28;20021;-75
2021/12/23 04:51:19;;;;;;;12.27;6.33;;;-0.90;98.10;;;;;;5065850;28;20031;-75
2021/12/23 04:53:46;;;;;;;9.30;5.82;;;-1.00;97.90;;;;;;5068152;28;20032;-75
2021/12/23 04:56:13;;;;;;;12.32;5.38;;;-1.00;98.00;;;;;;5068539;28;20532;-75
2021/12/23 04:58:41;;;;;;;10.43;5.50;;;-0.90;98.00;;;;;;5066961;28;20081;-75
2021/12/23 05:01:09;;;;;;;12.88;5.82;;;-0.90;97.60;;;;;;5065851;28;20039;-75
2021/12/23 05:03:35;;;;;;;7.35;4.95;;;-0.90;97.40;;;;;;5066565;28;20344;-75
2021/12/23 05:06:00;;;;;;;8.33;4.57;;;-1.00;97.50;;;;;;5065698;28;20079;-75
2021/12/23 05:08:26;;;;;;;8.40;4.22;;;-0.70;97.10;;;;;;5069453;28;20032;-75
2021/12/23 05:10:52;;;;;;;8.63;4.47;;;-0.50;96.50;;;;;;5084377;28;20028;-75
2021/12/23 05:13:18;;;;;;;10.75;5.07;;;-0.50;96.50;;;;;;5070582;28;20615;-75
2021/12/23 05:15:44;;;;;;;12.65;5.13;;;-0.50;96.70;;;;;;5065641;28;20031;-75
2021/12/23 05:18:10;;;;;;;8.40;4.17;;;-0.60;96.40;;;;;;5077767;28;20233;-75
2021/12/23 05:20:36;;;;;;;9.33;4.70;;;-0.70;96.70;;;;;;5069972;28;20097;-75
2021/12/23 05:23:02;;;;;;;11.93;7.43;;;-0.60;97.30;;;;;;5073841;28;20458;-75
2021/12/23 05:25:28;;;;;;;11.73;7.13;;;-0.60;97.20;;;;;;5078927;28;20035;-75
2021/12/23 05:27:54;;;;;;;7.82;5.63;;;-0.70;97.00;;;;;;5083712;28;20016;-75
2021/12/23 05:30:23;;;;;;;11.73;6.30;;;-0.80;97.40;;;;;;5067992;28;20062;-75
2021/12/23 05:32:49;;;;;;;10.60;5.27;;;-0.80;97.20;;;;;;5071870;28;20033;-75
2021/12/23 05:35:17;;;;;;;9.53;5.17;;;-0.80;97.30;;;;;;5074569;28;20066;-75
2021/12/23 05:37:44;;;;;;;11.90;6.07;;;-0.90;97.50;;;;;;5069908;28;20036;-75
2021/12/23 05:40:14;;;;;;;14.23;5.55;;;-0.90;97.60;;;;;;5076679;28;20394;-75
2021/12/23 05:42:39;;;;;;;11.48;6.07;;;-1.00;97.50;;;;;;5082020;28;20390;-76
2021/12/23 05:45:05;;;;;;;10.38;5.45;;;-1.00;97.90;;;;;;5083896;28;20043;-75
2021/12/23 05:47:31;;;;;;;10.43;4.95;;;-1.10;98.50;;;;;;5079622;28;20032;-75
2021/12/23 05:49:57;;;;;;;13.98;6.35;;;-1.00;98.30;;;;;;5065052;28;20028;-75
2021/12/23 05:52:22;;;;;;;8.73;4.83;;;-1.10;98.20;;;;;;5075510;28;20028;-75
2021/12/23 05:54:48;;;;;;;12.45;6.05;;;-1.20;98.60;;;;;;5085249;28;20112;-75
2021/12/23 05:57:14;;;;;;;9.38;5.53;;;-1.20;98.50;;;;;;5074202;28;20066;-75
2021/12/23 05:59:40;;;;;;;11.55;6.75;;;-1.30;98.50;;;;;;5064911;28;20554;-75
2021/12/23 06:02:06;;;;;;;16.17;5.33;;;-1.10;98.40;;;;;;5073017;28;20421;-75
2021/12/23 06:04:33;;;;;;;10.30;5.90;;;-1.30;98.30;;;;;;5071835;28;20040;-75
2021/12/23 06:06:59;;;;;;;10.27;5.30;;;-1.20;98.00;;;;;;5075505;28;20372;-75
2021/12/23 06:09:25;;;;;;;11.63;5.97;;;-1.00;97.90;;;;;;5064258;28;20040;-75
2021/12/23 06:11:51;;;;;;;9.57;5.03;;;-1.00;97.80;;;;;;5068802;28;20028;-75
2021/12/23 06:14:18;;;;;;;11.03;5.63;;;-1.00;97.70;;;;;;5084451;28;20099;-75
2021/12/23 06:16:44;;;;;;;9.57;5.50;;;-1.00;97.40;;;;;;5082318;28;20027;-75
2021/12/23 06:19:09;;;;;;;9.48;4.72;;;-0.90;97.40;;;;;;5068830;28;20410;-75
2021/12/23 06:21:35;;;;;;;9.20;5.53;;;-0.90;97.80;;;;;;5082139;28;20537;-75
2021/12/23 06:24:03;;;;;;;8.83;5.23;;;-0.90;97.30;;;;;;5062545;28;20116;-75
2021/12/23 06:26:30;;;;;;;9.02;4.85;;;-1.10;97.80;;;;;;5064575;28;20012;-75
2021/12/23 06:28:56;;;;;;;12.07;5.47;;;-1.10;97.60;;;;;;5083201;28;20049;-75
2021/12/23 06:31:21;;;;;;;7.90;4.03;;;-1.00;97.30;;;;;;5069663;28;20044;-75
2021/12/23 06:33:47;;;;;;;10.17;4.70;;;-1.00;97.40;;;;;;5082013;28;20027;-74
2021/12/23 06:36:13;;;;;;;9.17;5.13;;;-1.00;97.60;;;;;;5081712;28;20171;-75
2021/12/23 06:38:43;;;;;;;11.98;4.72;;;-1.10;97.80;;;;;;5082128;28;20031;-75
2021/12/23 06:41:09;;;;;;;9.87;4.70;;;-1.10;97.60;;;;;;5081263;28;20028;-75
2021/12/23 06:43:35;;;;;;;12.18;5.68;;;-1.00;97.00;;;;;;5063085;28;20039;-74
2021/12/23 06:46:02;;;;;;;9.20;4.83;;;-0.90;97.30;;;;;;5062519;28;20127;-75
2021/12/23 06:48:29;;;;;;;12.63;4.97;;;-1.00;97.20;;;;;;5080788;28;20020;-75
2021/12/23 06:50:57;;;;;;;8.97;5.27;;;-1.00;97.30;;;;;;5085390;28;20081;-75
2021/12/23 06:53:23;;;;;;;10.83;4.97;;;-0.90;97.40;;;;;;5077668;28;20035;-75
2021/12/23 06:55:54;;;;;;;10.57;5.65;;;-0.90;97.30;;;;;;5067018;28;20078;-78
2021/12/23 06:58:20;;;;;;;9.45;5.65;;;-1.00;97.40;;;;;;5085435;28;20036;-76
2021/12/23 07:00:46;;;;;;;16.35;8.23;;;-1.00;97.50;;;;;;5083019;28;20047;-77
2021/12/23 07:03:12;;;;;;;23.98;9.35;;;-1.10;97.20;;;;;;5066916;28;20636;-76
2021/12/23 07:05:38;;;;;;;12.30;5.80;;;-1.10;97.40;;;;;;5070902;28;20102;-76
2021/12/23 07:08:12;;;;;;;9.07;4.73;;;-1.10;97.60;;;;;;5070940;28;20052;-76
2021/12/23 07:10:39;;;;;;;9.18;5.07;;;-1.20;97.50;;;;;;5068211;28;20025;-76
2021/12/23 07:13:05;;;;;;;9.37;5.43;;;-1.20;97.80;;;;;;5086122;28;20130;-76
2021/12/23 07:15:32;;;;;;;15.20;7.07;;;-1.10;97.80;;;;;;5071012;28;20029;-76
2021/12/23 07:18:00;;;;;;;11.53;6.17;;;-1.20;97.90;;;;;;5068462;28;20035;-76
2021/12/23 07:20:28;;;;;;;9.02;4.68;;;-1.10;98.40;;;;;;5082786;28;20058;-77
2021/12/23 07:22:55;;;;;;;10.90;5.10;;;-1.10;97.90;;;;;;5084295;28;20039;-76
2021/12/23 07:25:21;;;;;;;8.90;5.40;;;-0.90;97.10;;;;;;5077556;28;20080;-76
2021/12/23 07:27:47;;;;;;;11.07;6.20;;;-0.90;97.50;;;;;;5083336;28;20039;-76
2021/12/23 07:30:15;;;;;;;9.43;5.13;;;-1.00;97.40;;;;;;5085239;28;20688;-76
2021/12/23 07:32:42;;;;;;;10.53;5.33;;;-1.00;97.40;;;;;;5078682;28;20020;-76
2021/12/23 07:35:08;;;;;;;11.90;5.57;;;-1.00;97.40;;;;;;5081148;28;20024;-76
2021/12/23 07:37:36;;;;;;;10.52;5.50;;;-1.10;97.30;;;;;;5079249;28;20526;-76
2021/12/23 07:40:03;;;;;;;9.83;5.33;;;-1.10;97.10;;;;;;5075045;28;20031;-76
2021/12/23 07:42:31;;;;;;;10.00;5.00;;;-1.10;96.90;;;;;;5079808;28;20603;-76
2021/12/23 07:44:57;;;;;;;9.63;4.90;;;-1.10;97.10;;;;;;5081531;28;20016;-76
2021/12/23 07:47:24;;;;;;;13.77;4.53;;;-0.90;97.10;;;;;;5067481;28;20086;-75
2021/12/23 07:49:50;;;;;;;8.53;4.70;;;-0.90;96.90;;;;;;5078566;28;20951;-74
2021/12/23 07:52:16;;;;;;;7.47;4.57;;;-0.80;96.40;;;;;;5063714;28;20033;-74
2021/12/23 07:54:42;;;;;;;8.18;4.07;;;-0.70;95.90;;;;;;5069067;28;20016;-74
2021/12/23 07:57:08;;;;;;;8.17;3.93;;;-0.70;95.90;;;;;;5076295;28;20036;-73
2021/12/23 07:59:33;;;;;;;7.80;4.20;;;-0.70;96.10;;;;;;5075253;28;20032;-73
2021/12/23 08:02:00;;;;;;;6.70;4.20;;;-0.60;96.60;;;;;;5078715;28;20510;-74
2021/12/23 08:04:26;;;;;;;7.03;4.50;;;-0.60;96.70;;;;;;5082823;28;20036;-74
2021/12/23 08:06:55;;;;;;;10.25;5.82;;;-0.80;96.20;;;;;;5073679;28;20048;-74
2021/12/23 08:09:25;;;;;;;12.00;5.30;;;-0.70;96.30;;;;;;5067587;28;20033;-73
2021/12/23 08:11:51;;;;;;;8.90;5.03;;;-0.70;96.40;;;;;;5067617;28;20025;-74
2021/12/23 08:14:17;;;;;;;12.63;5.35;;;-0.90;96.60;;;;;;5067146;28;20115;-73
2021/12/23 08:16:43;;;;;;;11.05;4.82;;;-0.90;96.70;;;;;;5070374;28;20076;-74
2021/12/23 08:19:10;;;;;;;22.20;7.73;;;-0.80;96.90;;;;;;5071175;28;20052;-73
2021/12/23 08:21:36;;;;;;;17.97;10.27;;;-0.80;97.10;;;;;;5067272;28;20036;-73
2021/12/23 08:24:02;;;;;;;12.47;8.17;;;-0.70;97.20;;;;;;5066910;28;20477;-74
2021/12/23 08:26:29;;;;;;;11.52;6.63;;;-0.70;97.20;;;;;;5067325;28;20029;-73
2021/12/23 08:28:56;;;;;;;31.77;18.23;;;-0.80;97.10;;;;;;5066484;28;20044;-73
2021/12/23 08:31:23;;;;;;;25.50;12.32;;;-0.80;97.30;;;;;;5070026;28;20020;-74
2021/12/23 08:33:50;;;;;;;17.37;9.03;;;-0.80;97.50;;;;;;5083233;28;20475;-74
2021/12/23 08:36:16;;;;;;;15.97;7.97;;;-0.80;97.50;;;;;;5105978;28;20027;-73
2021/12/23 08:38:43;;;;;;;23.83;13.23;;;-0.90;97.50;;;;;;5086945;28;20050;-74
2021/12/23 08:41:10;;;;;;;23.17;14.20;;;-0.90;97.50;;;;;;5085207;28;20046;-73
2021/12/23 08:43:36;;;;;;;18.33;10.57;;;-0.90;97.60;;;;;;5078805;28;20024;-74
2021/12/23 08:46:02;;;;;;;18.02;10.68;;;-1.00;97.60;;;;;;5065061;28;20075;-74
2021/12/23 08:48:28;;;;;;;16.60;8.98;;;-1.00;97.60;;;;;;5077592;28;20039;-74
2021/12/23 08:50:54;;;;;;;18.20;8.32;;;-1.00;97.70;;;;;;5065397;28;20028;-74
2021/12/23 08:53:20;;;;;;;11.32;6.45;;;-1.10;97.50;;;;;;5066013;28;20067;-74
2021/12/23 08:55:46;;;;;;;10.17;6.47;;;-1.10;97.60;;;;;;5066166;28;20055;-74
2021/12/23 08:58:12;;;;;;;19.33;9.87;;;-1.10;97.50;;;;;;5071095;28;20025;-73
2021/12/23 09:00:41;;;;;;;12.93;6.70;;;-1.10;98.00;;;;;;5069728;28;20036;-74
2021/12/23 09:03:08;;;;;;;12.77;7.57;;;-1.10;98.00;;;;;;5073111;28;20020;-74
2021/12/23 09:05:36;;;;;;;14.20;8.03;;;-1.10;98.20;;;;;;5064983;28;20049;-74
2021/12/23 09:08:02;;;;;;;14.60;7.70;;;-1.20;97.90;;;;;;5072428;28;20025;-74
2021/12/23 09:10:28;;;;;;;15.80;9.05;;;-1.20;98.10;;;;;;5073956;28;20016;-73
2021/12/23 09:12:54;;;;;;;15.10;9.53;;;-1.20;98.30;;;;;;5064347;28;20110;-74
2021/12/23 09:15:20;;;;;;;17.40;8.77;;;-1.20;98.10;;;;;;5070714;28;20032;-73
2021/12/23 09:17:46;;;;;;;15.23;8.97;;;-1.20;97.70;;;;;;5080916;28;20144;-75
2021/12/23 09:20:15;;;;;;;17.73;8.17;;;-1.20;97.80;;;;;;5067128;28;20692;-77
2021/12/23 09:22:42;;;;;;;13.27;7.63;;;-1.20;98.20;;;;;;5069096;28;20035;-75
2021/12/23 09:25:13;;;;;;;18.33;8.50;;;-1.20;98.50;;;;;;5068027;28;20046;-75
2021/12/23 09:27:53;;;;;;;19.17;8.83;;;-1.40;98.70;;;;;;5077406;28;20028;-77
2021/12/23 09:33:04;;;;;;;15.38;8.55;;;-1.40;98.90;;;;;;5085019;28;20047;-74
2021/12/23 09:35:32;;;;;;;18.83;8.20;;;-1.30;99.00;;;;;;5067175;28;20039;-79
2021/12/23 09:37:59;;;;;;;12.27;8.23;;;-1.30;98.90;;;;;;5081467;28;20066;-75
2021/12/23 09:40:26;;;;;;;18.00;7.93;;;-1.10;98.70;;;;;;5075203;28;20088;-76
2021/12/23 09:42:53;;;;;;;10.97;6.33;;;-1.10;98.70;;;;;;5075543;28;20036;-75
2021/12/23 09:45:19;;;;;;;11.43;7.23;;;-1.00;98.00;;;;;;5065958;28;20155;-74
2021/12/23 09:47:48;;;;;;;14.03;6.60;;;-1.00;97.50;;;;;;5078224;28;20107;-76
2021/12/23 09:53:39;;;;;;;14.77;7.40;;;-0.80;97.40;;;;;;5072850;28;20536;-76
2021/12/23 09:56:05;;;;;;;16.80;8.97;;;-0.70;97.60;;;;;;5068826;28;20036;-76
2021/12/23 09:58:50;;;;;;;12.70;7.47;;;-0.80;97.80;;;;;;5063751;28;20051;-76
2021/12/23 10:01:15;;;;;;;10.40;5.95;;;-0.70;97.70;;;;;;5072939;28;20109;-76
2021/12/23 10:03:41;;;;;;;11.27;5.47;;;-0.70;97.30;;;;;;5066883;28;20067;-76
2021/12/23 10:06:07;;;;;;;10.50;5.77;;;-0.60;97.20;;;;;;5063498;28;20067;-76
2021/12/23 10:08:33;;;;;;;12.30;6.88;;;-0.50;97.00;;;;;;5073595;28;20451;-76
2021/12/23 10:11:14;;;;;;;12.88;7.25;;;-0.40;97.00;;;;;;5072250;28;20027;-76
2021/12/23 10:29:19;;;;;;;14.30;7.00;;;0.10;96.00;;;;;;5064069;28;20056;-76
2021/12/23 10:30:43;;;;;;;13.70;6.15;;;0.00;95.70;;;;;;5063840;28;20177;-76
2021/12/23 10:33:31;;;;;;;13.63;7.23;;;0.10;95.80;;;;;;5064446;28;20398;-76
2021/12/23 10:38:42;;;;;;;12.70;6.47;;;0.20;95.60;;;;;;5070545;28;20048;-76
2021/12/23 10:41:18;;;;;;;9.88;5.32;;;0.10;95.70;;;;;;5075403;28;20394;-76
2021/12/23 10:44:03;;;;;;;10.10;6.35;;;0.10;95.60;;;;;;5076474;28;20031;-76
2021/12/23 10:46:32;;;;;;;15.43;6.30;;;0.10;95.80;;;;;;5067179;28;20031;-76
2021/12/23 10:49:21;;;;;;;10.85;6.38;;;0.20;95.80;;;;;;5084057;28;20120;-76
2021/12/23 10:51:56;;;;;;;11.38;6.00;;;0.30;95.70;;;;;;5079818;28;20032;-76
2021/12/23 10:57:58;;;;;;;;;;;0.50;95.70;;;;;;5082462;28;20444;-76
2021/12/23 11:00:24;;;;;;;12.95;6.18;;;0.70;95.00;;;;;;5064841;28;20031;-76
2021/12/23 11:03:03;;;;;;;13.88;6.53;;;0.90;94.60;;;;;;5081796;28;20027;-76
2021/12/23 11:05:34;;;;;;;11.07;6.05;;;1.00;94.50;;;;;;5069532;28;20723;-76
2021/12/23 11:08:17;;;;;;;9.60;5.22;;;1.20;94.50;;;;;;5076391;28;20578;-76
2021/12/23 11:27:50;;;;;;;10.75;6.45;;;1.30;94.10;;;;;;5082002;28;20145;-76
2021/12/23 11:31:06;;;;;;;12.88;7.50;;;1.50;94.40;;;;;;5066005;28;20039;-76
2021/12/23 11:38:33;;;;;;;13.45;7.38;;;1.80;94.50;;;;;;5063153;28;20039;-76
2021/12/23 11:41:31;;;;;;;13.45;6.10;;;1.70;93.90;;;;;;5077013;28;20069;-76
2021/12/23 11:43:52;;;;;;;15.05;8.35;;;1.60;93.60;;;;;;5069553;28;20039;-76
2021/12/23 11:46:31;;;;;;;17.75;8.20;;;1.90;94.70;;;;;;5072409;28;20078;-77
2021/12/23 11:49:00;;;;;;;12.07;6.05;;;2.00;94.40;;;;;;5076129;28;20115;-75
2021/12/23 11:51:32;;;;;;;11.13;6.07;;;1.80;93.60;;;;;;5072060;28;20017;-75
2021/12/23 11:54:03;;;;;;;11.43;5.53;;;1.90;93.80;;;;;;5075225;28;20027;-78
2021/12/23 11:56:32;;;;;;;17.70;6.72;;;1.70;94.00;;;;;;5073903;28;20069;-75
2021/12/23 11:59:02;;;;;;;13.55;7.35;;;1.70;94.10;;;;;;5072366;28;20626;-76
2021/12/23 12:01:31;;;;;;;10.50;6.55;;;1.70;94.20;;;;;;5084809;28;20043;-78
2021/12/23 12:04:09;;;;;;;12.98;6.28;;;1.70;93.90;;;;;;5083695;28;20039;-76
2021/12/23 12:06:43;;;;;;;14.00;5.90;;;1.80;93.70;;;;;;5078590;28;20136;-76
2021/12/23 12:09:15;;;;;;;10.93;6.18;;;1.70;93.60;;;;;;5081280;28;20020;-76
2021/12/23 12:11:46;;;;;;;15.25;5.88;;;1.90;94.00;;;;;;5073091;28;20994;-76
2021/12/23 12:14:31;;;;;;;13.27;6.03;;;2.00;94.60;;;;;;5080411;28;20039;-76
2021/12/23 12:17:26;;;;;;;11.07;6.03;;;2.00;93.30;;;;;;5086123;28;20493;-76
2021/12/23 12:19:58;;;;;;;12.48;6.05;;;1.90;93.50;;;;;;5067374;28;20031;-76
2021/12/23 12:23:01;;;;;;;13.85;5.45;;;1.90;93.80;;;;;;5069968;28;20031;-76
2021/12/23 12:25:26;;;;;;;11.75;6.20;;;1.80;93.30;;;;;;5072257;28;20020;-76
2021/12/23 12:28:13;;;;;;;13.30;6.50;;;1.90;93.70;;;;;;5077943;28;20108;-76
2021/12/23 12:30:46;;;;;;;10.15;5.90;;;1.90;93.40;;;;;;5063467;28;20471;-76
2021/12/23 12:33:34;;;;;;;12.88;6.20;;;2.10;93.40;;;;;;5079823;28;20827;-76
2021/12/23 12:36:06;;;;;;;13.35;7.60;;;1.80;93.00;;;;;;5079625;28;20052;-77
2021/12/23 12:38:39;;;;;;;13.95;6.68;;;2.00;93.30;;;;;;5076275;28;20071;-77
2021/12/23 12:41:26;;;;;;;12.65;6.40;;;2.10;93.30;;;;;;5080933;28;20032;-76
2021/12/23 12:44:27;;;;;;;13.35;6.57;;;2.10;92.60;;;;;;5077945;28;20024;-81
2021/12/23 12:47:04;;;;;;;15.73;6.78;;;1.90;92.50;;;;;;5069858;28;20020;-80
2021/12/23 12:49:33;;;;;;;12.80;5.63;;;1.90;92.70;;;;;;5071736;28;20032;-84
2021/12/23 12:52:24;;;;;;;14.27;6.15;;;1.90;92.60;;;;;;5068692;28;20024;-80
2021/12/23 12:54:55;;;;;;;13.63;6.55;;;1.80;92.70;;;;;;5076345;28;20032;-77
2021/12/23 12:57:25;;;;;;;14.25;6.50;;;2.00;93.30;;;;;;5074106;28;20531;-78
2021/12/23 12:59:52;;;;;;;13.95;6.85;;;1.90;93.20;;;;;;5078897;28;20039;-80
2021/12/23 13:02:29;;;;;;;13.18;6.78;;;2.00;93.40;;;;;;5065123;28;20028;-76
2021/12/23 13:05:09;;;;;;;12.10;6.22;;;2.00;92.70;;;;;;5078720;28;20470;-77
2021/12/23 13:07:38;;;;;;;10.60;5.90;;;1.90;92.50;;;;;;5067409;28;20520;-76
2021/12/23 13:10:14;;;;;;;14.30;5.75;;;1.90;92.90;;;;;;5065126;28;20446;-76
2021/12/23 13:12:52;;;;;;;12.70;6.20;;;2.00;93.60;;;;;;5068728;28;20048;-76
2021/12/23 14:24:20;;;;;;;8.95;5.65;;;2.00;92.00;;;;;;5055107;28;20110;-77
2021/12/23 14:26:47;;;;;;;10.40;4.20;;;2.10;92.30;;;;;;5062521;28;20135;-77
2021/12/23 14:29:14;;;;;;;10.18;5.57;;;2.10;92.10;;;;;;5056078;28;20025;-76
2021/12/23 14:31:48;;;;;;;9.70;5.07;;;2.20;92.00;;;;;;5063366;28;20016;-76
2021/12/23 14:54:26;;;;;;;10.02;4.82;;;1.90;91.40;;;;;;5045598;28;20117;-76
2021/12/23 14:57:06;;;;;;;11.50;4.30;;;1.80;91.20;;;;;;5055095;28;20576;-76
2021/12/23 14:59:53;;;;;;;8.70;4.38;;;1.80;91.30;;;;;;5043407;28;20103;-77
2021/12/23 15:05:45;;;;;;;9.63;4.38;;;1.80;91.80;;;;;;5048449;28;20123;-76
2021/12/23 15:08:31;;;;;;;8.55;4.55;;;1.70;91.50;;;;;;5073185;28;20077;-76
2021/12/23 15:14:19;;;;;;;10.90;4.18;;;1.80;91.80;;;;;;5047464;28;20494;-76
2021/12/23 15:16:45;;;;;;;10.20;5.10;;;1.70;91.60;;;;;;5056113;28;20399;-76
2021/12/23 15:23:01;;;;;;;10.48;4.22;;;1.70;92.20;;;;;;5057270;28;20063;-77
2021/12/23 15:25:41;;;;;;;10.18;4.38;;;1.60;91.70;;;;;;5066178;28;20039;-76